Time;durP1;ratioP1;P1;durP2;ratioP2;P2;SDS_P1;SDS_P2;PMS_P1;PMS_P2;Temp;Humidity;BMP_temperature;BMP_pressure;BME280_temperature;BME280_humidity;BME280_pressure;Samples;Min_cycle;Max_cycle;Signal;HPM_P1;HPM_P2
2023/05/27 00:00:47;;;;;;;33.70;6.50;;;10.50;99.90;;;;;;5016984;28;20133;-59
2023/05/27 00:03:14;;;;;;;25.77;6.50;;;10.50;99.90;;;;;;5016386;28;20050;-61
2023/05/27 00:05:41;;;;;;;21.50;5.68;;;10.50;99.90;;;;;;5016276;28;20069;-60
2023/05/27 00:08:08;;;;;;;31.30;6.20;;;10.50;99.90;;;;;;5021128;28;20042;-60
2023/05/27 00:10:35;;;;;;;23.88;5.90;;;10.50;99.90;;;;;;5036061;28;20034;-60
2023/05/27 00:13:02;;;;;;;31.05;6.93;;;10.50;99.90;;;;;;5036331;28;20058;-61
2023/05/27 00:15:29;;;;;;;30.48;6.35;;;10.40;99.90;;;;;;5035647;28;20045;-61
2023/05/27 00:17:56;;;;;;;29.35;6.30;;;10.50;99.90;;;;;;5036468;28;20045;-60
2023/05/27 00:20:22;;;;;;;29.83;7.00;;;10.40;99.90;;;;;;5035795;28;20053;-60
2023/05/27 00:22:50;;;;;;;32.00;6.82;;;10.40;99.90;;;;;;5035885;28;20033;-60
2023/05/27 00:25:20;;;;;;;28.48;6.07;;;10.40;99.90;;;;;;5035668;28;20045;-59
2023/05/27 00:27:47;;;;;;;21.40;5.72;;;10.40;99.90;;;;;;5035774;28;20037;-60
2023/05/27 00:30:14;;;;;;;28.63;6.10;;;10.30;99.90;;;;;;5036171;28;20048;-60
2023/05/27 00:32:41;;;;;;;21.67;6.32;;;10.30;99.90;;;;;;5034190;28;20053;-60
2023/05/27 00:35:08;;;;;;;27.98;6.28;;;10.30;99.90;;;;;;5035584;28;20053;-61
2023/05/27 00:37:34;;;;;;;32.45;6.88;;;10.30;99.90;;;;;;5034040;28;20145;-61
2023/05/27 00:40:02;;;;;;;24.13;5.75;;;10.40;99.90;;;;;;5018014;28;20059;-61
2023/05/27 00:42:29;;;;;;;30.58;6.90;;;10.40;99.90;;;;;;5035318;28;20078;-59
2023/05/27 00:44:56;;;;;;;25.15;5.55;;;10.40;99.90;;;;;;5034525;28;20076;-60
2023/05/27 00:47:23;;;;;;;21.95;5.97;;;10.40;99.90;;;;;;5033949;28;20124;-60
2023/05/27 00:49:50;;;;;;;22.25;5.43;;;10.40;99.90;;;;;;5033969;28;20400;-61
2023/05/27 00:52:17;;;;;;;27.10;6.60;;;10.30;99.90;;;;;;5035451;28;20045;-60
2023/05/27 00:54:44;;;;;;;24.67;5.95;;;10.30;99.90;;;;;;5034108;28;20049;-60
2023/05/27 00:57:10;;;;;;;25.15;6.43;;;10.30;99.90;;;;;;5035826;28;20072;-59
2023/05/27 00:59:37;;;;;;;29.10;7.13;;;10.20;99.90;;;;;;5033375;28;20051;-60
2023/05/27 01:02:04;;;;;;;32.42;6.35;;;10.20;99.90;;;;;;5035318;28;20049;-58
2023/05/27 01:04:31;;;;;;;29.35;6.55;;;10.10;99.90;;;;;;5035263;28;20087;-61
2023/05/27 01:06:58;;;;;;;23.67;5.80;;;10.10;99.90;;;;;;5035298;28;20037;-60
2023/05/27 01:09:25;;;;;;;25.58;6.15;;;10.00;99.90;;;;;;5035387;28;20038;-61
2023/05/27 01:11:52;;;;;;;31.38;6.10;;;10.00;99.90;;;;;;5033967;28;20103;-60
2023/05/27 01:14:19;;;;;;;25.30;6.05;;;10.00;99.90;;;;;;5033797;28;20375;-61
2023/05/27 01:16:46;;;;;;;31.10;6.25;;;10.00;99.90;;;;;;5033318;28;20080;-60
2023/05/27 01:19:14;;;;;;;26.52;6.60;;;10.00;99.90;;;;;;5035039;28;20125;-61
2023/05/27 01:21:44;;;;;;;29.20;6.55;;;9.90;99.90;;;;;;5034640;28;20065;-60
2023/05/27 01:24:11;;;;;;;23.67;6.32;;;9.90;99.90;;;;;;5034809;28;20133;-61
2023/05/27 01:26:38;;;;;;;35.47;6.28;;;9.90;99.90;;;;;;5033473;28;20037;-59
2023/05/27 01:29:05;;;;;;;27.58;6.30;;;9.90;99.90;;;;;;5033880;28;20473;-59
2023/05/27 01:31:32;;;;;;;24.65;6.05;;;9.90;99.90;;;;;;5033439;28;20457;-60
2023/05/27 01:33:58;;;;;;;35.10;7.20;;;9.90;99.90;;;;;;5033247;28;20538;-60
2023/05/27 01:36:25;;;;;;;28.95;7.35;;;9.90;99.90;;;;;;5034643;28;20056;-59
2023/05/27 01:38:52;;;;;;;24.52;6.00;;;9.80;99.90;;;;;;5034600;28;20049;-59
2023/05/27 01:41:19;;;;;;;28.35;7.07;;;9.90;99.90;;;;;;5034968;28;20053;-59
2023/05/27 01:43:46;;;;;;;27.33;6.88;;;9.80;99.90;;;;;;5034782;28;20072;-58
2023/05/27 01:46:13;;;;;;;25.35;6.57;;;9.80;99.90;;;;;;5032945;28;20095;-59
2023/05/27 01:48:39;;;;;;;30.42;6.30;;;9.80;99.90;;;;;;5034876;28;20038;-58
2023/05/27 01:51:07;;;;;;;23.45;6.10;;;9.80;99.90;;;;;;5032953;28;20045;-58
2023/05/27 01:53:34;;;;;;;31.35;6.47;;;9.70;99.90;;;;;;5034103;28;20037;-60
2023/05/27 01:56:01;;;;;;;26.23;5.88;;;9.70;99.90;;;;;;5032771;28;20137;-60
2023/05/27 01:58:28;;;;;;;24.35;6.53;;;9.70;99.90;;;;;;5033162;28;20056;-58
2023/05/27 02:00:55;;;;;;;29.98;6.57;;;9.70;99.90;;;;;;5034090;28;20369;-57
2023/05/27 02:03:22;;;;;;;22.70;6.00;;;9.70;99.90;;;;;;5032983;28;20041;-60
2023/05/27 02:05:49;;;;;;;24.23;6.30;;;9.70;99.90;;;;;;5034236;28;20033;-60
2023/05/27 02:08:17;;;;;;;34.47;7.18;;;9.70;99.90;;;;;;5033154;28;20038;-60
2023/05/27 02:10:44;;;;;;;23.50;6.47;;;9.70;99.90;;;;;;5032476;28;20391;-60
2023/05/27 02:13:10;;;;;;;24.35;6.32;;;9.70;99.90;;;;;;5034382;28;20065;-61
2023/05/27 02:15:37;;;;;;;24.73;6.20;;;9.60;99.90;;;;;;5032380;28;20073;-61
2023/05/27 02:18:05;;;;;;;27.75;6.70;;;9.60;99.90;;;;;;5032972;28;20049;-60
2023/05/27 02:20:32;;;;;;;23.08;6.32;;;9.60;99.90;;;;;;5016197;28;20057;-61
2023/05/27 02:22:59;;;;;;;21.05;6.30;;;9.60;99.90;;;;;;5033511;28;20073;-61
2023/05/27 02:25:25;;;;;;;25.30;7.13;;;9.60;99.90;;;;;;5032810;28;20456;-61
2023/05/27 02:27:52;;;;;;;27.38;6.60;;;9.50;99.90;;;;;;5032446;28;20061;-60
2023/05/27 02:30:20;;;;;;;24.02;6.93;;;9.50;99.90;;;;;;5032283;28;20045;-61
2023/05/27 02:32:47;;;;;;;26.45;6.90;;;9.50;99.90;;;;;;5033914;28;20048;-59
2023/05/27 02:35:17;;;;;;;29.27;6.57;;;9.50;99.90;;;;;;5032574;28;20052;-60
2023/05/27 02:37:44;;;;;;;32.10;7.88;;;9.50;99.90;;;;;;5032138;28;20049;-59
2023/05/27 02:40:11;;;;;;;29.10;7.47;;;9.50;99.90;;;;;;5032184;28;20053;-60
2023/05/27 02:42:38;;;;;;;26.10;7.25;;;9.50;99.90;;;;;;5032399;28;20061;-61
2023/05/27 02:45:05;;;;;;;32.13;8.13;;;9.50;99.90;;;;;;5032363;28;20415;-61
2023/05/27 02:47:34;;;;;;;24.75;7.07;;;9.40;99.90;;;;;;5032194;28;20099;-61
2023/05/27 02:50:00;;;;;;;23.85;6.63;;;9.40;99.90;;;;;;5034019;28;20033;-60
2023/05/27 02:52:28;;;;;;;32.45;8.07;;;9.40;99.90;;;;;;5032453;28;20048;-60
2023/05/27 02:54:55;;;;;;;28.25;7.43;;;9.40;99.90;;;;;;5032067;28;20377;-60
2023/05/27 02:57:22;;;;;;;26.95;6.75;;;9.40;99.90;;;;;;5032114;28;20041;-60
2023/05/27 02:59:48;;;;;;;30.70;7.45;;;9.40;99.90;;;;;;5032187;28;20040;-60
2023/05/27 03:02:15;;;;;;;27.33;6.97;;;9.30;99.90;;;;;;5033557;28;20076;-60
2023/05/27 03:04:42;;;;;;;29.73;7.55;;;9.30;99.90;;;;;;5031767;28;20042;-60
2023/05/27 03:07:09;;;;;;;25.73;6.47;;;9.30;99.90;;;;;;5032907;28;20045;-61
2023/05/27 03:09:36;;;;;;;26.20;6.70;;;9.30;99.90;;;;;;5033164;28;20472;-60
2023/05/27 03:12:03;;;;;;;25.95;7.45;;;9.30;99.90;;;;;;5031850;28;20049;-60
2023/05/27 03:14:31;;;;;;;24.75;6.80;;;9.30;99.90;;;;;;5031931;28;20037;-60
2023/05/27 03:16:57;;;;;;;28.52;6.75;;;9.30;99.90;;;;;;5033270;28;20091;-61
2023/05/27 03:19:24;;;;;;;30.70;7.68;;;9.30;99.90;;;;;;5033379;28;20045;-60
2023/05/27 03:21:51;;;;;;;25.50;6.80;;;9.30;99.90;;;;;;5031995;28;20145;-60
2023/05/27 03:24:19;;;;;;;24.30;6.18;;;9.30;99.90;;;;;;5035794;28;20037;-59
2023/05/27 03:26:46;;;;;;;26.55;6.53;;;9.20;99.90;;;;;;5035654;28;20042;-59
2023/05/27 03:29:13;;;;;;;27.55;7.40;;;9.20;99.90;;;;;;5036025;28;20079;-60
2023/05/27 03:31:40;;;;;;;25.27;6.82;;;9.20;99.90;;;;;;5036031;28;20128;-60
2023/05/27 03:34:11;;;;;;;21.58;6.60;;;9.10;99.90;;;;;;5035959;28;20151;-60
2023/05/27 03:36:40;;;;;;;24.10;6.65;;;9.10;99.90;;;;;;5035486;28;20049;-59
2023/05/27 03:39:06;;;;;;;24.45;7.10;;;9.20;99.90;;;;;;5035654;28;20094;-60
2023/05/27 03:41:37;;;;;;;20.42;6.22;;;9.20;99.90;;;;;;5034560;28;20083;-58
2023/05/27 03:44:04;;;;;;;19.92;6.65;;;9.10;99.90;;;;;;5034959;28;20041;-60
2023/05/27 03:46:32;;;;;;;23.27;6.68;;;9.20;99.90;;;;;;5034695;28;20049;-60
2023/05/27 03:48:59;;;;;;;21.15;6.47;;;9.10;99.90;;;;;;5034789;28;20119;-60
2023/05/27 03:51:26;;;;;;;24.65;6.35;;;9.10;99.90;;;;;;5035981;28;20037;-60
2023/05/27 03:53:53;;;;;;;26.92;7.05;;;9.10;99.90;;;;;;5034828;28;20144;-60
2023/05/27 03:56:20;;;;;;;26.23;7.53;;;9.00;99.90;;;;;;5036089;28;20051;-60
2023/05/27 03:58:47;;;;;;;24.50;6.07;;;9.00;99.90;;;;;;5034726;28;20060;-60
2023/05/27 04:01:13;;;;;;;19.08;6.03;;;9.10;99.90;;;;;;5035730;28;20048;-60
2023/05/27 04:03:41;;;;;;;20.67;6.38;;;9.10;99.90;;;;;;5034693;28;20045;-60
2023/05/27 04:06:08;;;;;;;18.98;6.22;;;9.10;99.90;;;;;;5036223;28;20077;-60
2023/05/27 04:08:35;;;;;;;24.45;6.72;;;9.10;99.90;;;;;;5036049;28;20062;-58
2023/05/27 04:11:02;;;;;;;28.52;6.97;;;9.10;99.90;;;;;;5034460;28;20412;-60
2023/05/27 04:13:29;;;;;;;18.58;7.00;;;9.10;99.90;;;;;;5035925;28;20045;-60
2023/05/27 04:15:57;;;;;;;21.52;6.47;;;9.10;99.90;;;;;;5034341;28;20041;-60
2023/05/27 04:18:24;;;;;;;26.70;6.70;;;9.10;99.90;;;;;;5035771;28;20072;-60
2023/05/27 04:20:52;;;;;;;21.52;6.50;;;9.10;99.90;;;;;;5035465;28;20049;-60
2023/05/27 04:23:19;;;;;;;25.52;6.57;;;9.10;99.90;;;;;;5034274;28;20049;-59
2023/05/27 04:25:48;;;;;;;26.70;7.18;;;9.10;99.90;;;;;;5034182;28;20041;-60
2023/05/27 04:28:16;;;;;;;19.35;6.78;;;9.10;99.90;;;;;;5034184;28;20080;-61
2023/05/27 04:30:45;;;;;;;23.00;7.32;;;9.10;99.90;;;;;;5034303;28;20076;-60
2023/05/27 04:33:25;;;;;;;21.92;6.57;;;9.20;99.90;;;;;;5033212;28;20052;-59
2023/05/27 04:35:53;;;;;;;16.50;5.90;;;9.20;99.90;;;;;;5033916;28;20103;-60
2023/05/27 04:38:22;;;;;;;18.98;6.22;;;9.20;99.90;;;;;;5034203;28;20492;-59
2023/05/27 04:40:56;;;;;;;24.98;6.20;;;9.20;99.90;;;;;;5033920;28;20069;-57
2023/05/27 04:43:35;;;;;;;19.92;5.90;;;9.30;99.90;;;;;;5034018;28;20045;-60
2023/05/27 04:46:02;;;;;;;23.15;6.50;;;9.40;99.90;;;;;;5033813;28;20128;-59
2023/05/27 04:48:31;;;;;;;23.85;7.32;;;9.40;99.90;;;;;;5033998;28;20091;-56
2023/05/27 04:50:58;;;;;;;25.77;7.07;;;9.50;99.90;;;;;;5035017;28;20061;-58
2023/05/27 04:53:25;;;;;;;23.40;6.85;;;9.50;99.90;;;;;;5033646;28;20045;-58
2023/05/27 04:55:52;;;;;;;30.60;7.82;;;9.60;99.90;;;;;;5033762;28;20052;-59
2023/05/27 04:58:20;;;;;;;25.25;6.72;;;9.60;99.90;;;;;;5033861;28;20441;-59
2023/05/27 05:00:52;;;;;;;26.17;7.28;;;9.70;99.90;;;;;;5035282;28;20060;-59
2023/05/27 05:03:36;;;;;;;22.23;6.18;;;9.70;99.90;;;;;;5033577;28;20145;-58
2023/05/27 05:06:04;;;;;;;29.27;7.35;;;9.80;99.90;;;;;;5033536;28;20052;-57
2023/05/27 05:08:31;;;;;;;25.95;6.93;;;9.80;99.90;;;;;;5017404;28;20045;-59
2023/05/27 05:10:58;;;;;;;28.25;7.43;;;9.90;99.90;;;;;;5033395;28;20080;-59
2023/05/27 05:13:28;;;;;;;27.45;6.35;;;9.90;99.90;;;;;;5033372;28;20468;-58
2023/05/27 05:15:56;;;;;;;26.13;6.53;;;10.00;99.90;;;;;;5033487;28;20056;-58
2023/05/27 05:18:22;;;;;;;29.30;7.10;;;10.00;99.90;;;;;;5033482;28;20042;-58
2023/05/27 05:20:50;;;;;;;20.13;5.95;;;10.00;99.90;;;;;;5033078;28;20053;-59
2023/05/27 05:23:25;;;;;;;28.92;7.10;;;10.00;99.90;;;;;;5033409;28;20373;-59
2023/05/27 05:25:57;;;;;;;22.77;6.38;;;10.10;99.90;;;;;;5034559;28;20061;-59
2023/05/27 05:28:25;;;;;;;21.45;6.53;;;10.20;99.90;;;;;;5033273;28;20046;-60
2023/05/27 05:30:52;;;;;;;27.67;6.28;;;10.40;99.90;;;;;;5033278;28;20034;-59
2023/05/27 05:33:20;;;;;;;28.48;7.13;;;10.40;99.90;;;;;;5033019;28;20531;-60
2023/05/27 05:35:49;;;;;;;21.90;6.57;;;10.50;99.90;;;;;;5032864;28;20038;-59
2023/05/27 05:38:24;;;;;;;22.83;6.50;;;10.50;99.90;;;;;;5033008;28;20041;-59
2023/05/27 05:40:52;;;;;;;25.48;6.22;;;10.60;99.90;;;;;;5033109;28;20049;-59
2023/05/27 05:43:20;;;;;;;24.52;6.70;;;10.70;99.90;;;;;;5034370;28;20531;-59
2023/05/27 05:45:47;;;;;;;23.33;6.13;;;10.70;99.90;;;;;;5032437;28;20045;-59
2023/05/27 05:48:17;;;;;;;25.50;6.32;;;10.80;99.90;;;;;;5033043;28;20060;-60
2023/05/27 05:50:44;;;;;;;30.55;6.90;;;10.90;99.90;;;;;;5033353;28;20072;-60
2023/05/27 05:53:11;;;;;;;22.52;6.35;;;11.00;99.90;;;;;;5032771;28;20041;-57
2023/05/27 05:55:39;;;;;;;20.48;6.20;;;11.00;99.90;;;;;;5033393;28;20431;-59
2023/05/27 05:58:06;;;;;;;20.73;5.18;;;11.10;99.90;;;;;;5032707;28;20041;-59
2023/05/27 06:00:33;;;;;;;24.67;6.43;;;11.10;99.90;;;;;;5032808;28;20197;-59
2023/05/27 06:03:20;;;;;;;21.92;6.05;;;11.20;99.90;;;;;;5033770;28;20091;-59
2023/05/27 06:05:54;;;;;;;20.02;5.72;;;11.30;99.90;;;;;;5034203;28;20041;-59
2023/05/27 06:08:21;;;;;;;26.73;6.18;;;11.40;99.90;;;;;;5032959;28;20046;-58
2023/05/27 06:11:10;;;;;;;24.35;5.85;;;11.50;99.90;;;;;;5033745;28;20508;-58
2023/05/27 06:13:40;;;;;;;20.90;6.07;;;11.50;99.90;;;;;;5032697;28;20072;-58
2023/05/27 06:16:08;;;;;;;21.42;5.10;;;11.60;99.90;;;;;;5032248;28;20574;-59
2023/05/27 06:18:35;;;;;;;23.73;6.10;;;11.60;99.90;;;;;;5033029;28;20073;-57
2023/05/27 06:21:02;;;;;;;20.88;5.97;;;11.70;99.90;;;;;;5032494;28;20057;-58
2023/05/27 06:23:45;;;;;;;21.33;6.50;;;11.80;99.90;;;;;;5033072;28;20045;-58
2023/05/27 06:26:15;;;;;;;28.17;6.40;;;11.80;99.90;;;;;;5032411;28;20492;-58
2023/05/27 06:28:48;;;;;;;24.80;5.88;;;11.80;99.90;;;;;;5032974;28;20476;-59
2023/05/27 06:31:15;;;;;;;23.65;5.80;;;11.90;99.90;;;;;;5034128;28;20049;-58
2023/05/27 06:33:42;;;;;;;24.80;5.55;;;11.90;99.90;;;;;;5033940;28;20424;-59
2023/05/27 06:36:09;;;;;;;20.05;5.80;;;12.00;99.90;;;;;;5033624;28;20124;-60
2023/05/27 06:38:39;;;;;;;23.50;5.40;;;12.10;99.90;;;;;;5032820;28;20049;-60
2023/05/27 06:41:06;;;;;;;18.50;5.93;;;12.10;99.90;;;;;;5032394;28;20049;-60
2023/05/27 06:43:33;;;;;;;25.20;5.75;;;12.20;99.90;;;;;;5032656;28;20034;-59
2023/05/27 06:46:21;;;;;;;24.80;5.65;;;12.30;99.90;;;;;;5032565;28;20045;-60
2023/05/27 06:49:06;;;;;;;20.88;5.30;;;12.40;99.90;;;;;;5032813;28;20099;-59
2023/05/27 06:51:35;;;;;;;21.48;5.90;;;12.50;99.90;;;;;;5032603;28;20065;-58
2023/05/27 06:54:01;;;;;;;22.13;5.13;;;12.50;99.90;;;;;;5033523;28;20087;-58
2023/05/27 06:56:34;;;;;;;16.80;5.45;;;12.70;99.90;;;;;;5031411;28;20057;-59
2023/05/27 06:59:20;;;;;;;19.08;5.35;;;12.80;99.90;;;;;;5033721;28;20191;-59
2023/05/27 07:01:47;;;;;;;23.40;6.20;;;12.80;99.90;;;;;;5033703;28;20049;-59
2023/05/27 07:04:15;;;;;;;18.85;5.53;;;12.90;99.90;;;;;;5032308;28;20042;-58
2023/05/27 07:06:57;;;;;;;23.42;5.70;;;13.00;99.90;;;;;;5032391;28;20048;-58
2023/05/27 07:09:24;;;;;;;19.10;5.63;;;13.20;99.90;;;;;;5031903;28;20051;-57
2023/05/27 07:11:51;;;;;;;18.20;5.25;;;13.30;99.90;;;;;;5031837;28;20033;-57
2023/05/27 07:14:53;;;;;;;26.17;6.07;;;13.30;99.90;;;;;;5028374;28;20050;-60
2023/05/27 07:17:23;;;;;;;24.60;5.82;;;13.30;99.90;;;;;;5031741;28;20144;-57
2023/05/27 07:19:50;;;;;;;20.75;5.80;;;13.30;99.90;;;;;;5032820;28;20056;-58
2023/05/27 07:22:19;;;;;;;20.52;5.72;;;13.50;99.90;;;;;;5031939;28;20053;-59
2023/05/27 07:24:46;;;;;;;21.85;5.55;;;13.50;99.90;;;;;;5032075;28;20447;-58
2023/05/27 07:27:13;;;;;;;25.27;6.05;;;13.60;99.90;;;;;;5031881;28;20132;-58
2023/05/27 07:29:47;;;;;;;21.73;6.47;;;13.70;99.90;;;;;;5031532;28;20045;-59
2023/05/27 07:32:23;;;;;;;23.52;6.18;;;13.80;99.90;;;;;;5031831;28;20038;-58
2023/05/27 07:34:50;;;;;;;23.17;5.82;;;13.90;99.90;;;;;;5031729;28;20164;-60
2023/05/27 07:37:17;;;;;;;22.10;6.20;;;13.90;99.90;;;;;;5031891;28;20075;-59
2023/05/27 07:39:44;;;;;;;18.08;5.35;;;14.00;99.90;;;;;;5031747;28;20385;-59
2023/05/27 07:42:14;;;;;;;24.60;6.10;;;14.10;99.90;;;;;;5031746;28;20037;-60
2023/05/27 07:44:41;;;;;;;20.10;5.45;;;14.20;99.90;;;;;;5032804;28;20493;-60
2023/05/27 07:47:08;;;;;;;22.25;5.47;;;14.30;99.90;;;;;;5031588;28;20087;-60
2023/05/27 07:49:35;;;;;;;18.38;5.43;;;14.20;99.90;;;;;;5031658;28;20084;-60
2023/05/27 07:52:23;;;;;;;38.10;6.88;;;14.30;99.90;;;;;;5032077;28;20044;-60
2023/05/27 07:54:51;;;;;;;18.40;5.70;;;14.40;99.90;;;;;;5031937;28;20054;-58
2023/05/27 07:57:23;;;;;;;17.58;5.97;;;14.50;99.90;;;;;;5031471;28;20370;-59
2023/05/27 07:59:51;;;;;;;17.27;5.47;;;14.70;99.90;;;;;;5033055;28;20050;-57
2023/05/27 08:02:19;;;;;;;18.70;5.90;;;14.70;99.90;;;;;;5031466;28;20045;-59
2023/05/27 08:04:47;;;;;;;21.83;6.38;;;14.90;99.90;;;;;;5031360;28;20400;-59
2023/05/27 08:07:21;;;;;;;21.15;6.05;;;15.00;99.90;;;;;;5031858;28;20045;-59
2023/05/27 08:10:03;;;;;;;20.27;5.70;;;15.20;99.90;;;;;;5036124;28;20366;-59
2023/05/27 08:13:06;;;;;;;18.75;5.65;;;15.40;99.70;;;;;;5014130;28;20046;-59
2023/05/27 08:15:53;;;;;;;24.67;6.35;;;15.60;99.30;;;;;;5032061;28;20128;-56
2023/05/27 08:18:33;;;;;;;22.65;5.88;;;15.60;98.80;;;;;;5036370;28;20065;-59
2023/05/27 08:21:20;;;;;;;20.98;6.13;;;15.60;98.90;;;;;;5035489;28;20084;-59
2023/05/27 08:24:08;;;;;;;19.98;5.88;;;15.70;98.80;;;;;;5036323;28;20058;-58
2023/05/27 08:27:02;;;;;;;16.20;6.13;;;15.80;99.00;;;;;;5035710;28;20046;-58
2023/05/27 08:29:39;;;;;;;18.48;5.60;;;15.90;98.10;;;;;;5034964;28;20057;-59
2023/05/27 08:32:29;;;;;;;21.42;5.82;;;16.10;98.10;;;;;;5034912;28;20057;-59
2023/05/27 08:34:57;;;;;;;19.90;6.32;;;16.10;98.10;;;;;;5040522;28;20045;-59
2023/05/27 08:37:24;;;;;;;21.40;5.80;;;16.10;97.90;;;;;;5038387;28;20049;-59
2023/05/27 08:39:51;;;;;;;22.70;6.10;;;16.10;97.90;;;;;;5034128;28;20400;-57
2023/05/27 08:42:33;;;;;;;15.73;6.50;;;16.00;98.20;;;;;;5030791;28;20061;-59
2023/05/27 08:44:59;;;;;;;24.20;6.53;;;15.80;98.00;;;;;;5033910;28;20057;-57
2023/05/27 08:47:26;;;;;;;23.40;6.60;;;15.50;98.40;;;;;;5039490;28;20099;-59
2023/05/27 08:49:53;;;;;;;21.58;6.57;;;15.40;98.60;;;;;;5035080;28;20480;-57
2023/05/27 08:52:20;;;;;;;20.02;7.13;;;15.30;98.60;;;;;;5034221;28;20500;-60
2023/05/27 08:54:47;;;;;;;19.70;7.10;;;15.10;98.50;;;;;;5033558;28;20091;-59
2023/05/27 08:57:14;;;;;;;22.25;8.73;;;14.90;98.90;;;;;;5034740;28;20081;-59
2023/05/27 08:59:41;;;;;;;25.63;8.68;;;14.80;98.50;;;;;;5036205;28;20076;-58
2023/05/27 09:02:08;;;;;;;23.40;9.27;;;14.80;98.60;;;;;;5017187;28;20416;-59
2023/05/27 09:04:35;;;;;;;26.02;9.45;;;14.80;98.80;;;;;;5034568;28;20095;-60
2023/05/27 09:07:02;;;;;;;25.42;13.38;;;14.90;98.90;;;;;;5034632;28;20034;-59
2023/05/27 09:09:29;;;;;;;26.88;13.07;;;15.00;98.40;;;;;;5034212;28;20045;-59
2023/05/27 09:11:59;;;;;;;26.70;12.73;;;15.10;98.80;;;;;;5034464;28;20040;-59
2023/05/27 09:14:26;;;;;;;31.52;12.95;;;15.20;98.50;;;;;;5035415;28;20785;-59
2023/05/27 09:16:52;;;;;;;22.77;10.85;;;15.20;98.50;;;;;;5034189;28;20061;-60
2023/05/27 09:19:19;;;;;;;25.10;10.48;;;15.40;98.20;;;;;;5034029;28;20060;-60
2023/05/27 09:21:46;;;;;;;25.98;10.85;;;15.40;98.40;;;;;;5033883;28;20041;-60
2023/05/27 09:24:13;;;;;;;28.27;13.38;;;15.50;98.40;;;;;;5034606;28;20052;-60
2023/05/27 09:26:39;;;;;;;26.13;12.68;;;15.60;98.10;;;;;;5038818;28;20044;-60
2023/05/27 09:29:06;;;;;;;21.48;9.68;;;15.50;97.90;;;;;;5030974;28;20041;-60
2023/05/27 09:31:33;;;;;;;20.00;9.93;;;15.40;97.60;;;;;;5033315;28;20037;-59
2023/05/27 09:34:00;;;;;;;22.83;11.88;;;15.30;97.90;;;;;;5033903;28;20050;-60
2023/05/27 09:36:27;;;;;;;27.02;12.48;;;15.30;98.10;;;;;;5034437;28;20377;-58
2023/05/27 09:38:53;;;;;;;25.50;11.43;;;15.30;98.00;;;;;;5033572;28;20053;-60
2023/05/27 09:41:20;;;;;;;25.88;12.60;;;15.30;98.30;;;;;;5040066;28;20037;-60
2023/05/27 09:43:47;;;;;;;19.48;10.68;;;15.40;98.10;;;;;;5034434;28;20124;-59
2023/05/27 09:46:14;;;;;;;25.08;10.75;;;15.40;97.50;;;;;;5036448;28;20434;-59
2023/05/27 09:48:41;;;;;;;26.60;10.98;;;15.30;98.00;;;;;;5034064;28;20041;-58
2023/05/27 09:51:07;;;;;;;27.60;11.73;;;15.30;98.50;;;;;;5033062;28;20084;-58
2023/05/27 09:53:34;;;;;;;27.65;12.23;;;15.40;98.40;;;;;;5037981;28;20033;-59
2023/05/27 09:56:01;;;;;;;26.10;11.95;;;15.50;98.20;;;;;;5026528;28;20052;-57
2023/05/27 09:58:28;;;;;;;21.13;10.98;;;15.60;98.20;;;;;;5026487;28;20053;-58
2023/05/27 10:00:55;;;;;;;22.98;10.13;;;15.50;98.10;;;;;;5026359;28;20041;-59
2023/05/27 10:03:23;;;;;;;26.65;9.70;;;15.50;98.20;;;;;;5033024;28;20046;-58
2023/05/27 10:05:50;;;;;;;22.33;9.10;;;15.50;97.90;;;;;;5027507;28;20038;-60
2023/05/27 10:08:17;;;;;;;21.42;9.18;;;15.50;97.70;;;;;;5027457;28;20382;-58
2023/05/27 10:10:52;;;;;;;21.10;8.10;;;15.40;98.20;;;;;;5028489;28;20045;-58
2023/05/27 10:13:20;;;;;;;21.63;9.85;;;15.50;98.10;;;;;;5033980;28;20112;-58
2023/05/27 10:15:48;;;;;;;24.75;9.50;;;15.60;98.00;;;;;;5033806;28;20056;-56
2023/05/27 10:18:15;;;;;;;20.58;9.73;;;15.60;97.70;;;;;;5033675;28;20396;-58
2023/05/27 10:20:42;;;;;;;22.40;9.48;;;15.60;97.50;;;;;;5033554;28;20103;-59
2023/05/27 10:23:10;;;;;;;23.10;9.60;;;15.80;97.60;;;;;;5035577;28;20477;-58
2023/05/27 10:25:37;;;;;;;24.65;9.65;;;15.90;97.70;;;;;;5033881;28;20407;-56
2023/05/27 10:28:04;;;;;;;24.95;9.75;;;16.00;97.10;;;;;;5033523;28;20146;-59
2023/05/27 10:30:31;;;;;;;21.08;9.50;;;16.00;96.70;;;;;;5033756;28;20116;-57
2023/05/27 10:32:58;;;;;;;23.60;10.10;;;16.00;96.90;;;;;;5033326;28;20041;-59
2023/05/27 10:35:25;;;;;;;24.33;10.05;;;16.10;97.00;;;;;;5033415;28;20095;-59
2023/05/27 10:37:51;;;;;;;23.63;10.25;;;16.00;96.50;;;;;;5033495;28;20041;-59
2023/05/27 10:40:18;;;;;;;22.15;9.50;;;16.00;96.80;;;;;;5033519;28;20156;-60
2023/05/27 10:42:45;;;;;;;20.65;9.07;;;16.00;96.40;;;;;;5033385;28;20045;-59
2023/05/27 10:45:13;;;;;;;21.35;8.25;;;15.90;96.60;;;;;;5033425;28;20041;-61
2023/05/27 10:47:40;;;;;;;23.83;8.15;;;15.90;96.80;;;;;;5033375;28;20041;-59
2023/05/27 10:50:07;;;;;;;19.35;8.02;;;15.90;96.80;;;;;;5033117;28;20045;-58
2023/05/27 10:52:36;;;;;;;18.60;7.30;;;16.00;96.70;;;;;;5037813;28;20033;-58
2023/05/27 10:55:03;;;;;;;19.45;7.38;;;16.00;96.80;;;;;;5027251;28;20093;-60
2023/05/27 10:57:30;;;;;;;18.13;7.97;;;16.00;96.30;;;;;;5033202;28;20049;-59
2023/05/27 10:59:57;;;;;;;21.10;7.00;;;16.00;96.80;;;;;;5033220;28;20415;-60
2023/05/27 11:02:26;;;;;;;16.55;6.55;;;16.10;96.90;;;;;;5033131;28;20037;-60
2023/05/27 11:04:52;;;;;;;17.13;6.60;;;16.20;96.90;;;;;;5033139;28;20048;-58
2023/05/27 11:07:19;;;;;;;21.88;7.53;;;16.20;96.60;;;;;;5033053;28;20033;-59
2023/05/27 11:09:46;;;;;;;14.98;6.47;;;16.30;96.40;;;;;;5036511;28;20103;-58
2023/05/27 11:12:16;;;;;;;20.05;6.97;;;16.20;96.20;;;;;;5026779;28;20503;-63
2023/05/27 11:14:42;;;;;;;22.73;6.95;;;16.30;96.80;;;;;;5032977;28;20440;-60
2023/05/27 11:17:09;;;;;;;26.38;7.82;;;16.30;96.80;;;;;;5027574;28;20077;-57
2023/05/27 11:19:36;;;;;;;21.38;7.22;;;16.30;96.60;;;;;;5026415;28;20052;-58
2023/05/27 11:22:03;;;;;;;19.42;6.80;;;16.40;97.10;;;;;;5033059;28;20503;-59
2023/05/27 11:24:29;;;;;;;18.92;6.68;;;16.60;96.50;;;;;;5034063;28;20404;-60
2023/05/27 11:26:57;;;;;;;18.92;6.43;;;16.60;96.30;;;;;;5033237;28;20559;-60
2023/05/27 11:29:24;;;;;;;19.52;6.43;;;16.70;96.50;;;;;;5033046;28;20087;-57
2023/05/27 11:31:51;;;;;;;20.20;6.10;;;16.80;95.70;;;;;;5035735;28;20037;-58
2023/05/27 11:34:20;;;;;;;20.65;6.00;;;16.70;95.60;;;;;;5032767;28;20042;-57
2023/05/27 11:36:47;;;;;;;18.42;6.63;;;16.70;96.30;;;;;;5032820;28;20108;-54
2023/05/27 11:39:16;;;;;;;14.30;6.80;;;16.80;96.30;;;;;;5032044;28;20489;-54
2023/05/27 11:41:43;;;;;;;18.85;6.13;;;16.80;96.10;;;;;;5032844;28;20053;-58
2023/05/27 11:44:10;;;;;;;22.70;6.43;;;16.60;96.50;;;;;;5036789;28;20053;-58
2023/05/27 11:46:36;;;;;;;16.23;5.53;;;16.70;97.00;;;;;;5036711;28;20052;-60
2023/05/27 11:49:03;;;;;;;17.08;5.40;;;16.80;95.90;;;;;;5037039;28;20171;-60
2023/05/27 11:51:31;;;;;;;18.30;5.90;;;16.80;95.90;;;;;;5036744;28;20033;-59
2023/05/27 11:53:58;;;;;;;16.65;5.63;;;16.80;95.90;;;;;;5035294;28;20050;-59
2023/05/27 11:56:25;;;;;;;18.70;5.72;;;16.80;96.10;;;;;;5041179;28;20132;-59
2023/05/27 11:58:52;;;;;;;19.83;5.85;;;16.80;96.70;;;;;;5036363;28;20049;-60
2023/05/27 12:01:19;;;;;;;18.95;6.30;;;16.90;96.80;;;;;;5038230;28;20064;-60
2023/05/27 12:03:46;;;;;;;18.67;5.97;;;17.00;95.80;;;;;;5036471;28;20037;-60
2023/05/27 12:06:13;;;;;;;15.98;6.22;;;16.90;95.50;;;;;;5036000;28;20496;-60
2023/05/27 12:08:40;;;;;;;19.17;6.13;;;16.90;95.60;;;;;;5038546;28;20069;-59
2023/05/27 12:11:06;;;;;;;19.48;6.13;;;16.80;95.90;;;;;;5036053;28;20481;-59
2023/05/27 12:13:33;;;;;;;17.00;6.10;;;16.90;96.30;;;;;;5036198;28;20073;-59
2023/05/27 12:16:00;;;;;;;20.40;6.03;;;17.00;96.30;;;;;;5035970;28;20054;-60
2023/05/27 12:18:27;;;;;;;18.35;5.88;;;17.20;95.90;;;;;;5036171;28;20049;-60
2023/05/27 12:20:54;;;;;;;15.77;5.32;;;17.10;95.70;;;;;;5035771;28;20061;-59
2023/05/27 12:23:21;;;;;;;17.58;5.78;;;17.10;96.00;;;;;;5037028;28;20068;-60
2023/05/27 12:25:48;;;;;;;19.20;5.35;;;17.10;95.40;;;;;;5035704;28;20048;-60
2023/05/27 12:28:15;;;;;;;21.85;5.18;;;17.10;95.40;;;;;;5034918;28;20094;-60
2023/05/27 12:30:42;;;;;;;15.80;5.20;;;17.10;95.00;;;;;;5032414;28;20052;-59
2023/05/27 12:33:09;;;;;;;15.93;4.85;;;17.20;95.10;;;;;;5035812;28;20451;-59
2023/05/27 12:35:36;;;;;;;17.77;5.35;;;17.30;95.40;;;;;;5035158;28;20532;-60
2023/05/27 12:38:03;;;;;;;18.92;5.22;;;17.30;95.10;;;;;;5035611;28;20053;-59
2023/05/27 12:40:30;;;;;;;18.85;5.45;;;17.30;95.80;;;;;;5036574;28;20076;-60
2023/05/27 12:42:57;;;;;;;21.13;5.25;;;17.40;95.80;;;;;;5035592;28;20052;-59
2023/05/27 12:45:25;;;;;;;18.40;5.63;;;17.50;95.80;;;;;;5035758;28;20451;-60